createdAt,value
2023-03-26T00:00:59.272Z,0.00
2023-03-26T00:01:59.312Z,0.00
2023-03-26T00:02:59.279Z,0.00
2023-03-26T00:03:59.215Z,0.00
2023-03-26T00:04:59.211Z,0.00
2023-03-26T00:05:59.253Z,0.00
2023-03-26T00:06:59.157Z,0.00
2023-03-26T00:07:59.176Z,0.00
2023-03-26T00:08:59.123Z,0.00
2023-03-26T00:09:59.109Z,0.00
2023-03-26T00:11:00.957Z,0.00
2023-03-26T00:11:59.072Z,0.00
2023-03-26T00:12:59.059Z,0.00
2023-03-26T00:13:59.057Z,0.00
2023-03-26T00:14:59.009Z,0.00
2023-03-26T00:15:58.990Z,0.00
2023-03-26T00:16:58.977Z,0.00
2023-03-26T00:17:58.986Z,0.00
2023-03-26T00:18:58.934Z,0.00
2023-03-26T00:19:58.917Z,0.00
2023-03-26T00:20:58.904Z,0.00
2023-03-26T00:21:58.908Z,0.00
2023-03-26T00:22:58.894Z,0.00
2023-03-26T00:23:58.840Z,0.00
2023-03-26T00:24:58.847Z,0.00
2023-03-26T00:25:58.810Z,0.00
2023-03-26T00:26:58.790Z,0.00
2023-03-26T00:27:58.807Z,0.00
2023-03-26T00:28:58.755Z,0.00
2023-03-26T00:29:58.734Z,0.00
2023-03-26T00:30:58.751Z,0.00
2023-03-26T00:31:58.698Z,0.00
2023-03-26T00:32:58.745Z,0.00
2023-03-26T00:33:58.662Z,0.00
2023-03-26T00:34:58.643Z,0.00
2023-03-26T00:35:58.838Z,0.00
2023-03-26T00:36:58.615Z,0.00
2023-03-26T00:37:58.590Z,0.00
2023-03-26T00:38:58.576Z,0.00
2023-03-26T00:40:01.066Z,0.00
2023-03-26T00:40:58.536Z,0.00
2023-03-26T00:41:58.518Z,0.00
2023-03-26T00:42:58.525Z,0.00
2023-03-26T00:43:58.522Z,0.00
2023-03-26T00:44:58.494Z,0.00
2023-03-26T00:45:58.629Z,0.00
2023-03-26T00:46:58.428Z,0.00
2023-03-26T00:47:58.456Z,0.00
2023-03-26T00:48:58.393Z,0.00
2023-03-26T00:49:58.427Z,0.00
2023-03-26T00:50:58.364Z,0.00
2023-03-26T00:51:58.338Z,0.00
2023-03-26T00:52:58.336Z,0.00
2023-03-26T00:53:58.320Z,0.00
2023-03-26T00:54:58.291Z,0.00
2023-03-26T00:55:58.295Z,0.00
2023-03-26T00:56:58.272Z,0.00
2023-03-26T00:57:58.226Z,0.00
2023-03-26T00:58:58.208Z,0.00
2023-03-26T00:59:58.192Z,0.00
2023-03-26T01:00:58.222Z,0.00
2023-03-26T01:01:58.238Z,0.00
2023-03-26T01:02:58.235Z,0.00
2023-03-26T01:04:08.378Z,0.00
2023-03-26T01:04:58.142Z,0.00
2023-03-26T01:05:58.084Z,0.00
2023-03-26T01:06:58.062Z,0.00
2023-03-26T01:07:58.041Z,0.00
2023-03-26T01:08:58.041Z,0.00
2023-03-26T01:09:58.005Z,0.00
2023-03-26T01:10:57.991Z,0.00
2023-03-26T01:11:58.008Z,0.00
2023-03-26T01:12:57.954Z,0.00
2023-03-26T01:13:57.953Z,0.00
2023-03-26T01:14:57.917Z,0.00
2023-03-26T01:15:57.912Z,0.00
2023-03-26T01:16:57.912Z,0.00
2023-03-26T01:17:57.946Z,0.00
2023-03-26T01:18:57.842Z,0.00
2023-03-26T01:19:57.822Z,0.00
2023-03-26T01:20:57.809Z,0.00
2023-03-26T01:21:57.797Z,0.00
2023-03-26T01:22:57.772Z,0.00
2023-03-26T01:23:57.749Z,0.00
2023-03-26T01:24:57.738Z,0.00
2023-03-26T01:25:57.713Z,0.00
2023-03-26T01:26:57.701Z,0.00
2023-03-26T01:27:57.677Z,0.00
2023-03-26T01:28:57.658Z,0.00
2023-03-26T01:29:57.639Z,0.00
2023-03-26T01:30:57.621Z,0.00
2023-03-26T01:31:57.630Z,0.00
2023-03-26T01:32:57.714Z,0.00
2023-03-26T01:33:57.567Z,0.00
2023-03-26T01:34:57.556Z,0.00
2023-03-26T01:35:57.766Z,0.00
2023-03-26T01:36:57.541Z,0.00
2023-03-26T01:37:57.495Z,0.00
2023-03-26T01:38:58.923Z,0.00
2023-03-26T01:39:57.461Z,0.00
2023-03-26T01:40:57.507Z,0.00
2023-03-26T01:41:57.506Z,0.00
2023-03-26T01:42:57.415Z,0.00
2023-03-26T01:43:57.387Z,0.00
2023-03-26T01:44:57.367Z,0.00
2023-03-26T01:45:57.379Z,0.00
2023-03-26T01:46:57.383Z,0.00
2023-03-26T01:47:57.372Z,0.00
2023-03-26T01:48:57.294Z,0.00
2023-03-26T01:49:57.274Z,0.00
2023-03-26T01:50:57.258Z,0.00
2023-03-26T01:51:57.237Z,0.00
2023-03-26T01:52:57.225Z,0.00
2023-03-26T01:53:57.212Z,0.00
2023-03-26T01:54:57.183Z,0.00
2023-03-26T01:55:57.162Z,0.00
2023-03-26T01:56:57.206Z,0.00
2023-03-26T01:57:57.169Z,0.00
2023-03-26T01:58:57.116Z,0.00
2023-03-26T01:59:57.088Z,0.00
2023-03-26T02:00:57.072Z,0.00
2023-03-26T02:01:57.100Z,0.00
2023-03-26T02:02:57.175Z,0.00
2023-03-26T02:03:57.059Z,0.00
2023-03-26T02:04:56.997Z,0.00
2023-03-26T02:05:57.029Z,0.00
2023-03-26T02:06:56.962Z,0.00
2023-03-26T02:07:56.943Z,0.00
2023-03-26T02:08:56.930Z,0.00
2023-03-26T02:09:56.911Z,0.00
2023-03-26T02:10:56.899Z,0.00
2023-03-26T02:11:56.874Z,0.00
2023-03-26T02:12:56.864Z,0.00
2023-03-26T02:13:56.833Z,0.00
2023-03-26T02:14:56.857Z,0.00
2023-03-26T02:15:57.015Z,0.00
2023-03-26T02:16:56.782Z,0.00
2023-03-26T02:17:56.805Z,0.00
2023-03-26T02:18:56.740Z,0.00
2023-03-26T02:19:56.722Z,0.00
2023-03-26T02:20:56.775Z,0.00
2023-03-26T02:21:56.683Z,0.00
2023-03-26T02:22:56.667Z,0.00
2023-03-26T02:23:56.652Z,0.00
2023-03-26T02:24:56.628Z,0.00
2023-03-26T02:25:56.729Z,0.00
2023-03-26T02:26:56.596Z,0.00
2023-03-26T02:27:56.574Z,0.00
2023-03-26T02:28:56.563Z,0.00
2023-03-26T02:29:56.540Z,0.00
2023-03-26T02:30:56.519Z,0.00
2023-03-26T02:31:56.550Z,0.00
2023-03-26T02:32:56.540Z,0.00
2023-03-26T02:33:56.466Z,0.00
2023-03-26T02:34:56.455Z,0.00
2023-03-26T02:36:21.619Z,0.00
2023-03-26T02:36:56.412Z,0.00
2023-03-26T02:37:56.422Z,0.00
2023-03-26T02:38:56.416Z,0.00
2023-03-26T02:39:56.378Z,0.00
2023-03-26T02:40:56.362Z,0.00
2023-03-26T02:41:56.366Z,0.00
2023-03-26T02:42:56.302Z,0.00
2023-03-26T02:43:56.280Z,0.00
2023-03-26T02:44:56.277Z,0.00
2023-03-26T02:45:56.552Z,0.00
2023-03-26T02:46:56.262Z,0.00
2023-03-26T02:47:56.246Z,0.00
2023-03-26T02:48:56.198Z,0.00
2023-03-26T02:49:56.176Z,0.00
2023-03-26T02:50:56.154Z,0.00
2023-03-26T02:51:56.166Z,0.00
2023-03-26T02:52:56.169Z,0.00
2023-03-26T02:53:56.096Z,0.00
2023-03-26T02:54:56.081Z,0.00
2023-03-26T02:55:56.176Z,0.00
2023-03-26T02:56:56.107Z,0.00
2023-03-26T02:57:56.031Z,0.00
2023-03-26T02:58:56.007Z,0.00
2023-03-26T02:59:55.986Z,0.00
2023-03-26T03:00:56.026Z,0.00
2023-03-26T03:01:56.006Z,0.00
2023-03-26T03:02:55.968Z,0.00
2023-03-26T03:03:55.984Z,0.00
2023-03-26T03:04:55.904Z,0.00
2023-03-26T03:05:56.244Z,0.00
2023-03-26T03:06:55.857Z,0.00
2023-03-26T03:07:55.838Z,0.00
2023-03-26T03:08:55.826Z,0.00
2023-03-26T03:09:55.827Z,0.00
2023-03-26T03:10:55.803Z,0.00
2023-03-26T03:11:55.763Z,0.00
2023-03-26T03:12:55.745Z,0.00
2023-03-26T03:13:55.724Z,0.00
2023-03-26T03:14:55.711Z,0.00
2023-03-26T03:15:55.795Z,0.00
2023-03-26T03:16:55.822Z,0.00
2023-03-26T03:17:55.763Z,0.00
2023-03-26T03:18:57.301Z,0.00
2023-03-26T03:19:55.617Z,0.00
2023-03-26T03:20:55.598Z,0.00
2023-03-26T03:21:55.617Z,0.00
2023-03-26T03:22:55.563Z,0.00
2023-03-26T03:23:55.544Z,0.00
2023-03-26T03:24:55.525Z,0.00
2023-03-26T03:25:55.609Z,0.00
2023-03-26T03:26:55.489Z,0.00
2023-03-26T03:27:55.513Z,0.00
2023-03-26T03:28:55.457Z,0.00
2023-03-26T03:29:55.486Z,0.00
2023-03-26T03:30:55.504Z,0.00
2023-03-26T03:31:55.412Z,0.00
2023-03-26T03:32:55.464Z,0.00
2023-03-26T03:33:55.394Z,0.00
2023-03-26T03:34:55.361Z,0.00
2023-03-26T03:35:55.546Z,0.00
2023-03-26T03:36:55.315Z,0.00
2023-03-26T03:37:55.291Z,0.00
2023-03-26T03:38:55.298Z,0.00
2023-03-26T03:39:55.251Z,0.00
2023-03-26T03:40:55.235Z,0.00
2023-03-26T03:41:55.212Z,0.00
2023-03-26T03:42:55.196Z,0.00
2023-03-26T03:43:55.204Z,0.00
2023-03-26T03:44:55.158Z,0.00
2023-03-26T03:45:55.420Z,0.00
2023-03-26T03:46:55.122Z,0.00
2023-03-26T03:47:55.177Z,0.00
2023-03-26T03:48:55.104Z,0.00
2023-03-26T03:49:55.066Z,0.00
2023-03-26T03:50:55.053Z,0.00
2023-03-26T03:51:55.034Z,0.00
2023-03-26T03:52:55.016Z,0.00
2023-03-26T03:53:55.028Z,0.00
2023-03-26T03:54:54.973Z,0.00
2023-03-26T03:55:55.131Z,0.00
2023-03-26T03:56:54.977Z,0.00
2023-03-26T03:57:54.915Z,0.00
2023-03-26T03:58:54.901Z,0.00
2023-03-26T03:59:54.877Z,0.00
2023-03-26T04:00:54.862Z,0.00
2023-03-26T04:01:54.870Z,0.00
2023-03-26T04:02:54.897Z,0.00
2023-03-26T04:03:54.915Z,0.00
2023-03-26T04:04:54.840Z,0.00
2023-03-26T04:05:55.160Z,0.00
2023-03-26T04:06:54.756Z,0.00
2023-03-26T04:07:54.747Z,0.00
2023-03-26T04:08:54.727Z,0.00
2023-03-26T04:09:54.702Z,0.00
2023-03-26T04:10:54.707Z,0.00
2023-03-26T04:11:54.664Z,0.00
2023-03-26T04:12:54.645Z,0.00
2023-03-26T04:13:54.629Z,0.00
2023-03-26T04:14:54.665Z,0.00
2023-03-26T04:15:54.902Z,0.00
2023-03-26T04:16:54.564Z,0.00
2023-03-26T04:17:54.568Z,0.00
2023-03-26T04:18:54.530Z,0.00
2023-03-26T04:19:54.508Z,0.00
2023-03-26T04:20:54.528Z,0.00
2023-03-26T04:21:54.484Z,0.00
2023-03-26T04:22:54.454Z,0.00
2023-03-26T04:23:54.445Z,0.00
2023-03-26T04:24:54.657Z,0.00
2023-03-26T04:25:54.698Z,0.00
2023-03-26T04:26:54.382Z,0.00
2023-03-26T04:27:54.365Z,0.00
2023-03-26T04:28:54.366Z,0.00
2023-03-26T04:29:54.327Z,0.00
2023-03-26T04:30:54.361Z,0.00
2023-03-26T04:31:54.346Z,0.00
2023-03-26T04:32:54.312Z,0.00
2023-03-26T04:33:54.255Z,0.00
2023-03-26T04:34:54.235Z,0.00
2023-03-26T04:35:54.547Z,0.00
2023-03-26T04:36:54.239Z,0.00
2023-03-26T04:37:54.184Z,0.00
2023-03-26T04:38:54.159Z,0.00
2023-03-26T04:39:54.154Z,0.00
2023-03-26T04:40:54.140Z,0.00
2023-03-26T04:41:54.123Z,0.00
2023-03-26T04:42:54.095Z,0.00
2023-03-26T04:43:54.096Z,0.00
2023-03-26T04:44:54.050Z,0.00
2023-03-26T04:45:54.312Z,0.00
2023-03-26T04:46:54.110Z,0.00
2023-03-26T04:47:54.057Z,0.00
2023-03-26T04:48:53.982Z,0.00
2023-03-26T04:49:53.960Z,0.00
2023-03-26T04:50:53.948Z,0.00
2023-03-26T04:51:53.980Z,0.00
2023-03-26T04:52:53.926Z,0.00
2023-03-26T04:53:53.899Z,0.00
2023-03-26T04:54:53.882Z,0.00
2023-03-26T04:55:53.992Z,0.00
2023-03-26T04:56:53.887Z,0.00
2023-03-26T04:57:53.814Z,0.00
2023-03-26T04:58:53.799Z,0.00
2023-03-26T04:59:53.780Z,0.00
2023-03-26T05:00:53.807Z,0.00
2023-03-26T05:01:53.747Z,0.00
2023-03-26T05:02:53.754Z,0.00
2023-03-26T05:03:53.732Z,0.00
2023-03-26T05:04:53.691Z,0.00
2023-03-26T05:05:53.993Z,0.00
2023-03-26T05:06:53.651Z,0.00
2023-03-26T05:07:53.658Z,0.00
2023-03-26T05:08:53.703Z,0.00
2023-03-26T05:09:53.614Z,0.00
2023-03-26T05:10:53.810Z,0.00
2023-03-26T05:11:53.562Z,0.00
2023-03-26T05:12:53.554Z,0.00
2023-03-26T05:13:53.519Z,0.00
2023-03-26T05:14:53.529Z,0.00
2023-03-26T05:15:53.482Z,0.00
2023-03-26T05:16:53.469Z,0.00
2023-03-26T05:17:53.541Z,0.00
2023-03-26T05:18:53.429Z,0.00
2023-03-26T05:19:53.413Z,0.00
2023-03-26T05:20:53.587Z,0.00
2023-03-26T05:21:53.374Z,0.00
2023-03-26T05:22:53.364Z,0.00
2023-03-26T05:23:53.342Z,0.00
2023-03-26T05:24:53.360Z,0.00
2023-03-26T05:25:53.330Z,0.00
2023-03-26T05:26:53.285Z,0.00
2023-03-26T05:27:53.266Z,0.00
2023-03-26T05:28:53.253Z,0.00
2023-03-26T05:29:53.236Z,0.00
2023-03-26T05:30:53.612Z,0.00
2023-03-26T05:31:53.202Z,0.00
2023-03-26T05:32:53.245Z,0.00
2023-03-26T05:33:53.223Z,0.00
2023-03-26T05:34:53.138Z,0.00
2023-03-26T05:35:53.136Z,0.00
2023-03-26T05:36:53.166Z,0.00
2023-03-26T05:37:53.087Z,0.00
2023-03-26T05:38:53.068Z,5.63
2023-03-26T05:39:53.068Z,5.63
2023-03-26T05:40:53.222Z,5.63
2023-03-26T05:41:53.047Z,5.63
2023-03-26T05:42:53.002Z,5.63
2023-03-26T05:43:52.984Z,5.63
2023-03-26T05:44:52.962Z,11.25
2023-03-26T05:45:53.006Z,11.25
2023-03-26T05:46:52.939Z,11.25
2023-03-26T05:47:52.964Z,11.25
2023-03-26T05:48:52.889Z,11.25
2023-03-26T05:49:52.899Z,5.63
2023-03-26T05:50:53.200Z,5.63
2023-03-26T05:51:55.051Z,5.63
2023-03-26T05:52:52.830Z,5.63
2023-03-26T05:53:52.798Z,5.63
2023-03-26T05:54:52.784Z,5.63
2023-03-26T05:55:52.802Z,5.63
2023-03-26T05:56:52.823Z,5.63
2023-03-26T05:57:52.726Z,5.63
2023-03-26T05:58:52.724Z,5.63
2023-03-26T05:59:52.691Z,11.25
2023-03-26T06:00:52.783Z,11.25
2023-03-26T06:01:52.653Z,11.25
2023-03-26T06:02:52.702Z,11.25
2023-03-26T06:03:52.720Z,11.25
2023-03-26T06:04:52.775Z,11.25
2023-03-26T06:05:52.611Z,11.25
2023-03-26T06:06:52.594Z,11.25
2023-03-26T06:07:52.601Z,11.25
2023-03-26T06:09:01.860Z,11.25
2023-03-26T06:09:52.510Z,11.25
2023-03-26T06:10:52.639Z,11.25
2023-03-26T06:11:52.512Z,11.25
2023-03-26T06:12:52.487Z,16.88
2023-03-26T06:13:52.447Z,16.88
2023-03-26T06:14:52.449Z,16.88
2023-03-26T06:15:52.466Z,16.88
2023-03-26T06:16:52.388Z,16.88
2023-03-26T06:17:52.432Z,16.88
2023-03-26T06:18:57.160Z,16.88
2023-03-26T06:19:52.337Z,16.88
2023-03-26T06:20:52.432Z,16.88
2023-03-26T06:21:52.336Z,22.50
2023-03-26T06:22:52.309Z,22.50
2023-03-26T06:23:52.265Z,22.50
2023-03-26T06:24:52.271Z,22.50
2023-03-26T06:25:52.234Z,22.50
2023-03-26T06:26:52.217Z,28.13
2023-03-26T06:27:52.220Z,33.75
2023-03-26T06:28:52.195Z,33.75
2023-03-26T06:29:52.156Z,33.75
2023-03-26T06:30:52.415Z,28.13
2023-03-26T06:31:52.148Z,33.75
2023-03-26T06:32:52.159Z,33.75
2023-03-26T06:33:52.094Z,39.38
2023-03-26T06:34:52.076Z,39.38
2023-03-26T06:35:52.139Z,33.75
2023-03-26T06:36:52.075Z,28.13
2023-03-26T06:37:52.018Z,28.13
2023-03-26T06:38:52.014Z,28.13
2023-03-26T06:39:51.983Z,22.50
2023-03-26T06:40:52.046Z,22.50
2023-03-26T06:41:51.949Z,22.50
2023-03-26T06:43:06.859Z,22.50
2023-03-26T06:43:51.912Z,28.13
2023-03-26T06:44:51.905Z,28.13
2023-03-26T06:45:51.891Z,28.13
2023-03-26T06:46:51.899Z,33.75
2023-03-26T06:47:51.952Z,33.75
2023-03-26T06:48:51.841Z,33.75
2023-03-26T06:49:51.814Z,33.75
2023-03-26T06:50:51.945Z,33.75
2023-03-26T06:51:51.774Z,33.75
2023-03-26T06:52:51.766Z,33.75
2023-03-26T06:53:51.794Z,33.75
2023-03-26T06:54:51.723Z,33.75
2023-03-26T06:55:51.971Z,33.75
2023-03-26T06:56:51.718Z,33.75
2023-03-26T06:57:51.682Z,33.75
2023-03-26T06:58:51.657Z,33.75
2023-03-26T06:59:51.668Z,39.38
2023-03-26T07:00:51.663Z,39.38
2023-03-26T07:01:51.603Z,39.38
2023-03-26T07:02:51.625Z,39.38
2023-03-26T07:03:51.592Z,33.75
2023-03-26T07:04:51.607Z,28.13
2023-03-26T07:05:51.536Z,28.13
2023-03-26T07:06:51.521Z,28.13
2023-03-26T07:07:51.504Z,28.13
2023-03-26T07:08:51.504Z,28.13
2023-03-26T07:09:51.468Z,28.13
2023-03-26T07:10:51.465Z,28.13
2023-03-26T07:11:51.435Z,28.13
2023-03-26T07:12:51.435Z,33.75
2023-03-26T07:13:51.407Z,39.38
2023-03-26T07:14:51.378Z,39.38
2023-03-26T07:15:51.418Z,33.75
2023-03-26T07:16:51.394Z,33.75
2023-03-26T07:17:51.365Z,33.75
2023-03-26T07:18:51.319Z,28.13
2023-03-26T07:19:51.294Z,28.13
2023-03-26T07:20:51.277Z,28.13
2023-03-26T07:21:51.309Z,33.75
2023-03-26T07:22:51.252Z,33.75
2023-03-26T07:23:51.228Z,39.38
2023-03-26T07:24:51.227Z,45.00
2023-03-26T07:25:51.194Z,45.00
2023-03-26T07:26:51.174Z,50.63
2023-03-26T07:27:51.190Z,50.63
2023-03-26T07:29:04.451Z,56.25
2023-03-26T07:29:51.138Z,56.25
2023-03-26T07:30:51.114Z,56.25
2023-03-26T07:31:51.252Z,61.88
2023-03-26T07:32:51.105Z,61.88
2023-03-26T07:33:51.053Z,61.88
2023-03-26T07:34:51.047Z,56.25
2023-03-26T07:35:51.068Z,56.25
2023-03-26T07:36:51.001Z,50.63
2023-03-26T07:37:50.983Z,50.63
2023-03-26T07:38:51.011Z,45.00
2023-03-26T07:39:50.960Z,45.00
2023-03-26T07:40:50.930Z,45.00
2023-03-26T07:41:50.929Z,39.38
2023-03-26T07:42:50.900Z,33.75
2023-03-26T07:43:50.889Z,33.75
2023-03-26T07:44:50.865Z,33.75
2023-03-26T07:45:50.881Z,39.38
2023-03-26T07:46:50.827Z,39.38
2023-03-26T07:47:50.816Z,39.38
2023-03-26T07:48:50.842Z,33.75
2023-03-26T07:49:50.777Z,33.75
2023-03-26T07:50:50.769Z,39.38
2023-03-26T07:51:50.752Z,39.38
2023-03-26T07:52:50.725Z,45.00
2023-03-26T07:53:50.714Z,50.63
2023-03-26T07:54:50.732Z,56.25
2023-03-26T07:55:50.673Z,61.88
2023-03-26T07:56:50.716Z,67.50
2023-03-26T07:57:50.647Z,73.13
2023-03-26T07:58:50.636Z,67.50
2023-03-26T07:59:50.608Z,67.50
2023-03-26T08:00:50.588Z,67.50
2023-03-26T08:01:50.575Z,61.88
2023-03-26T08:02:50.621Z,61.88
2023-03-26T08:03:50.565Z,56.25
2023-03-26T08:04:50.625Z,50.63
2023-03-26T08:05:50.508Z,50.63
2023-03-26T08:06:50.484Z,50.63
2023-03-26T08:07:50.471Z,50.63
2023-03-26T08:08:50.501Z,50.63
2023-03-26T08:09:50.439Z,45.00
2023-03-26T08:10:50.422Z,45.00
2023-03-26T08:11:50.449Z,39.38
2023-03-26T08:12:50.408Z,33.75
2023-03-26T08:13:50.403Z,33.75
2023-03-26T08:14:50.421Z,28.13
2023-03-26T08:15:50.371Z,28.13
2023-03-26T08:16:50.326Z,28.13
2023-03-26T08:17:50.389Z,28.13
2023-03-26T08:18:50.284Z,28.13
2023-03-26T08:19:50.268Z,28.13
2023-03-26T08:20:50.258Z,22.50
2023-03-26T08:21:50.244Z,22.50
2023-03-26T08:22:50.245Z,22.50
2023-03-26T08:23:51.220Z,22.50
2023-03-26T08:24:50.183Z,22.50
2023-03-26T08:25:50.173Z,22.50
2023-03-26T08:26:50.148Z,22.50
2023-03-26T08:27:50.137Z,28.13
2023-03-26T08:28:50.134Z,28.13
2023-03-26T08:29:50.160Z,33.75
2023-03-26T08:30:50.126Z,33.75
2023-03-26T08:31:50.073Z,39.38
2023-03-26T08:32:50.076Z,39.38
2023-03-26T08:33:50.062Z,33.75
2023-03-26T08:34:50.023Z,33.75
2023-03-26T08:35:50.103Z,33.75
2023-03-26T08:36:50.011Z,33.75
2023-03-26T08:37:49.965Z,33.75
2023-03-26T08:38:49.947Z,33.75
2023-03-26T08:39:49.931Z,33.75
2023-03-26T08:40:49.963Z,39.38
2023-03-26T08:41:49.904Z,45.00
2023-03-26T08:42:49.884Z,45.00
2023-03-26T08:43:49.863Z,45.00
2023-03-26T08:44:49.847Z,45.00
2023-03-26T08:45:49.830Z,45.00
2023-03-26T08:46:49.890Z,39.38
2023-03-26T08:47:49.832Z,33.75
2023-03-26T08:48:49.782Z,33.75
2023-03-26T08:49:49.774Z,33.75
2023-03-26T08:50:49.746Z,33.75
2023-03-26T08:51:49.732Z,33.75
2023-03-26T08:52:49.728Z,33.75
2023-03-26T08:53:49.694Z,33.75
2023-03-26T08:54:49.682Z,33.75
2023-03-26T08:55:49.662Z,33.75
2023-03-26T08:56:49.658Z,33.75
2023-03-26T08:57:49.631Z,33.75
2023-03-26T08:58:49.615Z,33.75
2023-03-26T08:59:49.595Z,33.75
2023-03-26T09:00:49.574Z,39.38
2023-03-26T09:01:49.660Z,39.38
2023-03-26T09:02:49.570Z,45.00
2023-03-26T09:03:49.575Z,50.63
2023-03-26T09:04:49.508Z,50.63
2023-03-26T09:05:49.492Z,50.63
2023-03-26T09:06:49.498Z,50.63
2023-03-26T09:07:49.488Z,56.25
2023-03-26T09:08:53.945Z,61.88
2023-03-26T09:09:49.423Z,67.50
2023-03-26T09:10:49.416Z,73.13
2023-03-26T09:11:49.389Z,84.38
2023-03-26T09:12:49.399Z,101.25
2023-03-26T09:13:49.403Z,123.75
2023-03-26T09:14:49.340Z,140.63
2023-03-26T09:15:49.354Z,146.25
2023-03-26T09:16:49.304Z,146.25
2023-03-26T09:17:49.344Z,151.88
2023-03-26T09:18:49.277Z,163.13
2023-03-26T09:19:49.287Z,163.13
2023-03-26T09:20:49.246Z,163.13
2023-03-26T09:21:49.223Z,168.75
2023-03-26T09:22:49.208Z,168.75
2023-03-26T09:23:49.219Z,163.13
2023-03-26T09:24:49.204Z,168.75
2023-03-26T09:25:49.173Z,174.38
2023-03-26T09:26:49.171Z,174.38
2023-03-26T09:27:49.132Z,174.38
2023-03-26T09:28:49.113Z,174.38
2023-03-26T09:29:49.154Z,185.63
2023-03-26T09:30:49.092Z,180.00
2023-03-26T09:31:49.086Z,174.38
2023-03-26T09:32:49.076Z,174.38
2023-03-26T09:33:49.038Z,180.00
2023-03-26T09:34:49.018Z,180.00
2023-03-26T09:35:49.099Z,185.63
2023-03-26T09:36:48.994Z,185.63
2023-03-26T09:37:56.101Z,191.25
2023-03-26T09:38:48.959Z,196.88
2023-03-26T09:39:48.942Z,202.50
2023-03-26T09:40:49.208Z,196.88
2023-03-26T09:41:48.949Z,191.25
2023-03-26T09:42:48.901Z,191.25
2023-03-26T09:43:48.885Z,185.63
2023-03-26T09:44:48.868Z,174.38
2023-03-26T09:45:48.886Z,174.38
2023-03-26T09:46:48.878Z,174.38
2023-03-26T09:47:48.865Z,174.38
2023-03-26T09:48:48.823Z,180.00
2023-03-26T09:49:48.808Z,174.38
2023-03-26T09:50:48.816Z,180.00
2023-03-26T09:51:48.772Z,180.00
2023-03-26T09:52:48.753Z,185.63
2023-03-26T09:53:48.744Z,185.63
2023-03-26T09:54:48.733Z,185.63
2023-03-26T09:55:48.712Z,180.00
2023-03-26T09:56:48.781Z,174.38
2023-03-26T09:57:48.707Z,174.38
2023-03-26T09:58:48.667Z,180.00
2023-03-26T09:59:48.651Z,180.00
2023-03-26T10:00:48.650Z,185.63
2023-03-26T10:01:48.621Z,180.00
2023-03-26T10:02:48.658Z,180.00
2023-03-26T10:03:48.596Z,185.63
2023-03-26T10:04:48.639Z,185.63
2023-03-26T10:05:48.579Z,180.00
2023-03-26T10:06:48.547Z,174.38
2023-03-26T10:07:48.555Z,180.00
2023-03-26T10:08:48.525Z,185.63
2023-03-26T10:09:48.513Z,185.63
2023-03-26T10:10:48.535Z,180.00
2023-03-26T10:11:48.484Z,168.75
2023-03-26T10:12:48.479Z,157.50
2023-03-26T10:13:48.448Z,157.50
2023-03-26T10:14:48.432Z,151.88
2023-03-26T10:15:48.420Z,151.88
2023-03-26T10:16:48.436Z,146.25
2023-03-26T10:17:48.425Z,140.63
2023-03-26T10:18:48.380Z,135.00
2023-03-26T10:19:48.366Z,135.00
2023-03-26T10:20:48.342Z,135.00
2023-03-26T10:21:48.339Z,135.00
2023-03-26T10:22:48.344Z,129.38
2023-03-26T10:23:48.353Z,135.00
2023-03-26T10:24:48.286Z,146.25
2023-03-26T10:25:48.281Z,157.50
2023-03-26T10:27:09.270Z,180.00
2023-03-26T10:27:48.251Z,196.88
2023-03-26T10:28:48.251Z,196.88
2023-03-26T10:29:48.241Z,196.88
2023-03-26T10:30:48.215Z,196.88
2023-03-26T10:31:48.211Z,191.25
2023-03-26T10:32:48.216Z,185.63
2023-03-26T10:33:48.154Z,180.00
2023-03-26T10:34:48.133Z,168.75
2023-03-26T10:35:48.150Z,163.13
2023-03-26T10:36:48.137Z,163.13
2023-03-26T10:37:48.091Z,163.13
2023-03-26T10:38:48.078Z,157.50
2023-03-26T10:39:48.063Z,151.88
2023-03-26T10:40:48.051Z,146.25
2023-03-26T10:41:48.066Z,140.63
2023-03-26T10:42:48.026Z,123.75
2023-03-26T10:43:54.837Z,112.50
2023-03-26T10:44:47.994Z,95.63
2023-03-26T10:45:48.017Z,84.38
2023-03-26T10:46:48.019Z,78.75
2023-03-26T10:47:48.026Z,78.75
2023-03-26T10:48:47.979Z,78.75
2023-03-26T10:49:47.913Z,78.75
2023-03-26T10:50:47.904Z,73.13
2023-03-26T10:51:47.884Z,73.13
2023-03-26T10:52:47.895Z,73.13
2023-03-26T10:53:47.858Z,73.13
2023-03-26T10:54:47.844Z,78.75
2023-03-26T10:55:47.827Z,84.38
2023-03-26T10:56:47.830Z,84.38
2023-03-26T10:57:47.831Z,84.38
2023-03-26T10:58:49.848Z,84.38
2023-03-26T10:59:47.765Z,84.38
2023-03-26T11:00:47.890Z,90.00
2023-03-26T11:01:47.781Z,95.63
2023-03-26T11:02:47.750Z,101.25
2023-03-26T11:03:47.740Z,106.88
2023-03-26T11:04:47.685Z,112.50
2023-03-26T11:05:47.754Z,123.75
2023-03-26T11:06:47.653Z,129.38
2023-03-26T11:07:47.644Z,140.63
2023-03-26T11:08:47.714Z,140.63
2023-03-26T11:09:47.615Z,140.63
2023-03-26T11:10:47.605Z,140.63
2023-03-26T11:11:47.790Z,140.63
2023-03-26T11:12:47.652Z,140.63
2023-03-26T11:13:47.552Z,140.63
2023-03-26T11:14:47.574Z,135.00
2023-03-26T11:15:47.552Z,135.00
2023-03-26T11:16:47.514Z,135.00
2023-03-26T11:17:47.510Z,135.00
2023-03-26T11:18:47.477Z,140.63
2023-03-26T11:19:47.475Z,140.63
2023-03-26T11:20:47.451Z,146.25
2023-03-26T11:21:47.438Z,151.88
2023-03-26T11:22:47.428Z,151.88
2023-03-26T11:23:47.436Z,157.50
2023-03-26T11:24:47.418Z,157.50
2023-03-26T11:25:47.396Z,157.50
2023-03-26T11:26:47.354Z,151.88
2023-03-26T11:27:47.347Z,151.88
2023-03-26T11:29:02.925Z,151.88
2023-03-26T11:29:47.337Z,151.88
2023-03-26T11:30:47.302Z,151.88
2023-03-26T11:31:47.301Z,151.88
2023-03-26T11:32:47.298Z,151.88
2023-03-26T11:33:47.584Z,151.88
2023-03-26T11:34:47.241Z,151.88
2023-03-26T11:35:47.278Z,151.88
2023-03-26T11:36:47.234Z,146.25
2023-03-26T11:37:47.189Z,146.25
2023-03-26T11:38:47.176Z,146.25
2023-03-26T11:39:47.166Z,146.25
2023-03-26T11:40:47.149Z,146.25
2023-03-26T11:41:47.157Z,146.25
2023-03-26T11:42:47.114Z,146.25
2023-03-26T11:43:47.099Z,146.25
2023-03-26T11:44:47.099Z,146.25
2023-03-26T11:45:47.097Z,146.25
2023-03-26T11:46:47.071Z,146.25
2023-03-26T11:47:47.053Z,146.25
2023-03-26T11:48:47.039Z,146.25
2023-03-26T11:49:47.007Z,151.88
2023-03-26T11:50:47.021Z,151.88
2023-03-26T11:51:46.985Z,151.88
2023-03-26T11:52:47.213Z,151.88
2023-03-26T11:53:46.956Z,146.25
2023-03-26T11:54:46.932Z,146.25
2023-03-26T11:55:46.959Z,140.63
2023-03-26T11:57:04.457Z,140.63
2023-03-26T11:57:46.888Z,140.63
2023-03-26T11:58:46.879Z,140.63
2023-03-26T11:59:56.381Z,146.25
2023-03-26T12:00:46.840Z,146.25
2023-03-26T12:01:46.880Z,151.88
2023-03-26T12:02:46.873Z,151.88
2023-03-26T12:03:46.791Z,151.88
2023-03-26T12:04:46.823Z,146.25
2023-03-26T12:05:46.761Z,140.63
2023-03-26T12:06:46.746Z,140.63
2023-03-26T12:07:46.787Z,140.63
2023-03-26T12:08:46.718Z,140.63
2023-03-26T12:09:46.699Z,146.25
2023-03-26T12:10:46.684Z,146.25
2023-03-26T12:11:46.673Z,146.25
2023-03-26T12:12:46.666Z,146.25
2023-03-26T12:13:46.640Z,151.88
2023-03-26T12:14:46.701Z,151.88
2023-03-26T12:15:46.629Z,157.50
2023-03-26T12:16:46.680Z,151.88
2023-03-26T12:17:46.587Z,151.88
2023-03-26T12:18:46.564Z,146.25
2023-03-26T12:19:46.551Z,135.00
2023-03-26T12:20:46.665Z,129.38
2023-03-26T12:21:46.518Z,129.38
2023-03-26T12:22:47.781Z,135.00
2023-03-26T12:23:46.490Z,146.25
2023-03-26T12:24:46.474Z,151.88
2023-03-26T12:25:46.457Z,151.88
2023-03-26T12:26:46.443Z,151.88
2023-03-26T12:27:46.426Z,151.88
2023-03-26T12:28:46.415Z,146.25
2023-03-26T12:29:46.402Z,140.63
2023-03-26T12:30:46.381Z,123.75
2023-03-26T12:31:46.447Z,112.50
2023-03-26T12:32:47.047Z,101.25
2023-03-26T12:33:46.349Z,95.63
2023-03-26T12:34:46.323Z,95.63
2023-03-26T12:35:46.329Z,95.63
2023-03-26T12:36:46.300Z,95.63
2023-03-26T12:37:46.278Z,101.25
2023-03-26T12:38:46.261Z,101.25
2023-03-26T12:40:10.337Z,101.25
2023-03-26T12:40:46.232Z,101.25
2023-03-26T12:43:51.522Z,95.63
2023-03-26T12:44:49.409Z,90.00
2023-03-26T12:44:55.789Z,84.38
2023-03-26T12:45:46.199Z,78.75
2023-03-26T12:47:58.451Z,73.13
2023-03-26T12:47:58.924Z,73.13
2023-03-26T12:48:46.191Z,73.13
2023-03-26T12:49:46.096Z,73.13
2023-03-26T12:50:46.496Z,78.75
2023-03-26T12:51:46.067Z,78.75
2023-03-26T12:52:46.058Z,78.75
2023-03-26T12:53:46.034Z,73.13
2023-03-26T12:54:46.027Z,73.13
2023-03-26T12:55:46.007Z,67.50
2023-03-26T12:56:46.029Z,67.50
2023-03-26T12:57:45.981Z,67.50
2023-03-26T12:58:45.952Z,73.13
2023-03-26T12:59:45.936Z,73.13